createdAt,value
2023-05-01T00:01:00.457Z,14.70
2023-05-01T00:03:27.701Z,14.70
2023-05-01T00:06:03.884Z,14.70
2023-05-01T00:08:30.919Z,14.70
2023-05-01T00:10:58.358Z,14.70
2023-05-01T00:13:25.343Z,14.70
2023-05-01T00:15:52.696Z,14.60
2023-05-01T00:18:19.792Z,14.60
2023-05-01T00:20:46.739Z,14.60
2023-05-01T00:23:14.006Z,14.60
2023-05-01T00:25:40.964Z,14.70
2023-05-01T00:28:08.107Z,14.70
2023-05-01T00:30:35.408Z,14.70
2023-05-01T00:33:02.384Z,14.60
2023-05-01T00:35:30.121Z,14.60
2023-05-01T00:37:57.357Z,14.60
2023-05-01T00:40:24.795Z,14.60
2023-05-01T00:42:51.765Z,14.60
2023-05-01T00:45:18.808Z,14.50
2023-05-01T00:47:46.296Z,14.60
2023-05-01T00:50:13.956Z,14.50
2023-05-01T00:52:41.071Z,14.50
2023-05-01T00:55:08.342Z,14.50
2023-05-01T00:57:35.300Z,14.50
2023-05-01T01:00:02.286Z,14.50
2023-05-01T01:02:29.794Z,14.50
2023-05-01T01:04:56.917Z,14.40
2023-05-01T01:07:30.549Z,14.50
2023-05-01T01:10:00.297Z,14.40
2023-05-01T01:12:31.386Z,14.40
2023-05-01T01:14:58.397Z,14.40
2023-05-01T01:17:32.084Z,14.50
2023-05-01T01:20:31.316Z,14.60
2023-05-01T01:23:01.023Z,14.60
2023-05-01T01:26:00.522Z,14.50
2023-05-01T01:28:53.292Z,14.50
2023-05-01T01:31:33.055Z,14.40
2023-05-01T01:34:02.149Z,14.30
2023-05-01T01:36:41.291Z,14.30
2023-05-01T01:39:14.579Z,14.20
2023-05-01T01:41:43.352Z,14.30
2023-05-01T01:44:16.167Z,14.20
2023-05-01T01:46:43.220Z,14.20
2023-05-01T01:49:14.000Z,14.20
2023-05-01T01:51:42.192Z,14.20
2023-05-01T01:54:12.000Z,14.20
2023-05-01T01:56:41.624Z,14.20
2023-05-01T01:59:10.173Z,14.30
2023-05-01T02:01:39.039Z,14.30
2023-05-01T02:04:07.261Z,14.40
2023-05-01T02:06:35.608Z,14.40
2023-05-01T02:09:03.365Z,14.50
2023-05-01T02:11:31.130Z,14.50
2023-05-01T02:13:59.417Z,14.50
2023-05-01T02:16:27.948Z,14.50
2023-05-01T02:18:56.259Z,14.50
2023-05-01T02:21:23.730Z,14.50
2023-05-01T02:23:50.720Z,14.50
2023-05-01T02:26:18.523Z,14.50
2023-05-01T02:28:45.888Z,14.40
2023-05-01T02:31:13.020Z,14.50
2023-05-01T02:33:40.032Z,14.40
2023-05-01T02:36:07.081Z,14.40
2023-05-01T02:38:34.336Z,14.40
2023-05-01T02:41:02.040Z,14.40
2023-05-01T02:43:29.112Z,14.40
2023-05-01T02:45:57.599Z,14.30
2023-05-01T02:48:26.673Z,14.20
2023-05-01T02:50:55.050Z,14.20
2023-05-01T02:53:22.626Z,14.10
2023-05-01T02:55:50.444Z,14.10
2023-05-01T02:58:18.038Z,14.10
2023-05-01T03:00:45.841Z,14.10
2023-05-01T03:03:15.288Z,14.00
2023-05-01T03:05:42.540Z,14.00
2023-05-01T03:08:10.785Z,13.80
2023-05-01T03:10:39.904Z,13.80
2023-05-01T03:13:07.150Z,13.80
2023-05-01T03:15:34.113Z,13.80
2023-05-01T03:18:01.603Z,13.90
2023-05-01T03:20:29.069Z,13.90
2023-05-01T03:22:56.955Z,14.00
2023-05-01T03:25:23.926Z,13.90
2023-05-01T03:27:52.125Z,13.90
2023-05-01T03:30:20.060Z,13.90
2023-05-01T03:32:47.395Z,13.80
2023-05-01T03:35:14.568Z,13.80
2023-05-01T03:37:41.642Z,13.80
2023-05-01T03:40:08.896Z,13.80
2023-05-01T03:42:35.814Z,13.80
2023-05-01T03:45:02.849Z,13.80
2023-05-01T03:47:30.012Z,13.80
2023-05-01T03:49:57.613Z,13.80
2023-05-01T03:52:24.898Z,13.80
2023-05-01T03:54:51.976Z,13.80
2023-05-01T03:57:21.016Z,13.80
2023-05-01T03:59:48.248Z,13.70
2023-05-01T04:02:15.353Z,13.70
2023-05-01T04:04:45.469Z,13.70
2023-05-01T04:07:13.499Z,13.70
2023-05-01T04:09:40.490Z,13.60
2023-05-01T04:12:07.466Z,13.60
2023-05-01T04:14:34.456Z,13.60
2023-05-01T04:17:01.445Z,13.60
2023-05-01T04:19:28.352Z,13.60
2023-05-01T04:22:04.657Z,13.60
2023-05-01T04:24:31.555Z,13.60
2023-05-01T04:26:58.936Z,13.60
2023-05-01T04:29:25.964Z,13.70
2023-05-01T04:31:58.761Z,13.60
2023-05-01T04:34:29.565Z,13.70
2023-05-01T04:36:57.473Z,13.60
2023-05-01T04:39:24.656Z,13.60
2023-05-01T04:41:51.600Z,13.60
2023-05-01T04:44:18.585Z,13.60
2023-05-01T04:46:45.635Z,13.60
2023-05-01T04:49:12.693Z,13.60
2023-05-01T04:51:39.773Z,13.60
2023-05-01T04:54:06.859Z,13.60
2023-05-01T04:56:33.918Z,13.60
2023-05-01T04:59:00.912Z,13.60
2023-05-01T05:01:27.942Z,13.60
2023-05-01T05:03:55.023Z,13.60
2023-05-01T05:06:22.206Z,13.60
2023-05-01T05:08:52.273Z,13.60
2023-05-01T05:11:19.571Z,13.60
2023-05-01T05:13:46.878Z,13.60
2023-05-01T05:16:14.139Z,13.60
2023-05-01T05:18:41.794Z,13.60
2023-05-01T05:21:09.278Z,13.60
2023-05-01T05:23:36.715Z,13.60
2023-05-01T05:26:04.044Z,13.70
2023-05-01T05:28:31.415Z,13.70
2023-05-01T05:30:58.497Z,13.70
2023-05-01T05:33:28.816Z,13.70
2023-05-01T05:35:55.727Z,13.70
2023-05-01T05:38:22.700Z,13.80
2023-05-01T05:40:50.823Z,13.80
2023-05-01T05:43:17.940Z,13.80
2023-05-01T05:45:44.936Z,13.80
2023-05-01T05:48:11.909Z,13.90
2023-05-01T05:50:39.443Z,13.90
2023-05-01T05:53:06.621Z,13.90
2023-05-01T05:55:33.666Z,14.00
2023-05-01T05:58:01.010Z,14.10
2023-05-01T06:00:28.333Z,14.10
2023-05-01T06:02:55.482Z,14.20
2023-05-01T06:05:22.553Z,14.30
2023-05-01T06:07:49.649Z,14.30
2023-05-01T06:10:17.344Z,14.40
2023-05-01T06:12:50.009Z,14.40
2023-05-01T06:15:25.240Z,14.40
2023-05-01T06:17:52.354Z,14.50
2023-05-01T06:20:20.564Z,14.60
2023-05-01T06:22:47.820Z,14.60
2023-05-01T06:25:16.015Z,14.70
2023-05-01T06:27:43.095Z,14.80
2023-05-01T06:30:11.191Z,14.80
2023-05-01T06:32:38.302Z,14.90
2023-05-01T06:35:05.688Z,14.90
2023-05-01T06:37:32.618Z,15.00
2023-05-01T06:39:59.650Z,15.00
2023-05-01T06:42:26.790Z,15.10
2023-05-01T06:44:53.747Z,15.20
2023-05-01T06:47:20.724Z,15.20
2023-05-01T06:49:47.704Z,15.30
2023-05-01T06:52:14.676Z,15.30
2023-05-01T06:54:42.033Z,15.50
2023-05-01T06:57:09.012Z,15.60
2023-05-01T06:59:36.069Z,15.60
2023-05-01T07:02:03.062Z,15.70
2023-05-01T07:04:31.734Z,15.70
2023-05-01T07:06:58.698Z,15.80
2023-05-01T07:09:25.771Z,15.90
2023-05-01T07:11:52.795Z,16.00
2023-05-01T07:14:19.727Z,16.10
2023-05-01T07:16:46.995Z,16.30
2023-05-01T07:19:14.309Z,16.40
2023-05-01T07:21:41.675Z,16.50
2023-05-01T07:24:08.598Z,16.70
2023-05-01T07:26:35.665Z,16.70
2023-05-01T07:29:02.698Z,16.80
2023-05-01T07:31:29.632Z,16.90
2023-05-01T07:33:57.043Z,17.00
2023-05-01T07:36:24.283Z,17.10
2023-05-01T07:38:51.306Z,17.20
2023-05-01T07:41:18.284Z,17.30
2023-05-01T07:43:47.625Z,17.40
2023-05-01T07:46:14.637Z,17.60
2023-05-01T07:48:43.428Z,17.70
2023-05-01T07:51:10.363Z,17.70
2023-05-01T07:53:37.340Z,17.80
2023-05-01T07:56:09.066Z,17.80
2023-05-01T07:58:37.299Z,17.80
2023-05-01T08:01:04.588Z,18.00
2023-05-01T08:03:31.907Z,18.00
2023-05-01T08:05:59.187Z,18.00
2023-05-01T08:08:26.437Z,18.10
2023-05-01T08:10:53.556Z,18.10
2023-05-01T08:13:20.608Z,18.10
2023-05-01T08:15:47.705Z,18.10
2023-05-01T08:18:19.937Z,18.10
2023-05-01T08:20:48.443Z,18.20
2023-05-01T08:23:16.162Z,18.30
2023-05-01T08:25:43.459Z,18.30
2023-05-01T08:28:10.585Z,18.40
2023-05-01T08:30:37.715Z,18.40
2023-05-01T08:33:05.225Z,18.50
2023-05-01T08:35:32.138Z,18.60
2023-05-01T08:38:02.610Z,18.60
2023-05-01T08:40:32.076Z,18.70
2023-05-01T08:43:01.186Z,18.60
2023-05-01T08:45:29.286Z,18.60
2023-05-01T08:47:56.550Z,18.70
2023-05-01T08:50:23.970Z,18.70
2023-05-01T08:52:51.598Z,18.60
2023-05-01T08:55:20.793Z,18.60
2023-05-01T08:57:48.464Z,18.60
2023-05-01T09:00:18.710Z,18.70
2023-05-01T09:02:47.232Z,18.70
2023-05-01T09:05:16.031Z,18.70
2023-05-01T09:07:43.802Z,18.70
2023-05-01T09:10:12.132Z,18.70
2023-05-01T09:12:39.426Z,18.70
2023-05-01T09:15:08.013Z,18.70
2023-05-01T09:17:35.744Z,18.70
2023-05-01T09:20:06.401Z,18.80
2023-05-01T09:22:34.103Z,18.80
2023-05-01T09:25:01.758Z,18.80
2023-05-01T09:27:29.190Z,18.80
2023-05-01T09:29:56.569Z,18.80
2023-05-01T09:32:26.271Z,18.80
2023-05-01T09:34:54.231Z,18.80
2023-05-01T09:37:30.192Z,18.90
2023-05-01T09:40:09.409Z,18.80
2023-05-01T09:42:37.749Z,18.80
2023-05-01T09:45:14.240Z,18.80
2023-05-01T09:47:41.769Z,18.80
2023-05-01T09:50:09.201Z,18.70
2023-05-01T09:52:36.558Z,18.70
2023-05-01T09:55:14.003Z,18.70
2023-05-01T09:57:43.031Z,18.80
2023-05-01T10:00:10.552Z,18.80
2023-05-01T10:02:37.542Z,18.80
2023-05-01T10:05:04.895Z,18.90
2023-05-01T10:07:32.277Z,18.90
2023-05-01T10:10:01.348Z,18.90
2023-05-01T10:12:29.896Z,19.00
2023-05-01T10:14:58.182Z,19.10
2023-05-01T10:17:25.233Z,19.10
2023-05-01T10:19:53.308Z,19.20
2023-05-01T10:22:20.635Z,19.30
2023-05-01T10:24:47.848Z,19.30
2023-05-01T10:27:17.303Z,19.40
2023-05-01T10:29:47.536Z,19.50
2023-05-01T10:32:15.210Z,19.60
2023-05-01T10:34:50.575Z,19.60
2023-05-01T10:37:29.909Z,19.60
2023-05-01T10:39:57.122Z,19.70
2023-05-01T10:42:27.321Z,19.70
2023-05-01T10:44:55.110Z,19.70
2023-05-01T10:47:25.708Z,19.80
2023-05-01T10:50:07.334Z,20.00
2023-05-01T10:52:53.394Z,20.00
2023-05-01T10:55:36.448Z,20.00
2023-05-01T10:58:04.181Z,20.00
2023-05-01T11:00:31.914Z,20.10
2023-05-01T11:03:17.751Z,20.10
2023-05-01T11:08:29.912Z,20.10
2023-05-01T11:10:56.856Z,20.00
2023-05-01T11:13:42.715Z,19.80
2023-05-01T11:16:28.311Z,19.80
2023-05-01T11:18:55.406Z,19.70
2023-05-01T11:21:29.209Z,19.50
2023-05-01T11:23:56.191Z,19.50
2023-05-01T11:26:23.742Z,19.30
2023-05-01T11:28:54.343Z,19.20
2023-05-01T11:31:21.543Z,19.10
2023-05-01T11:33:48.553Z,19.00
2023-05-01T11:36:15.487Z,18.80
2023-05-01T11:39:01.783Z,18.70
2023-05-01T11:41:29.043Z,18.60
2023-05-01T11:43:59.298Z,18.60
2023-05-01T11:46:30.448Z,18.60
2023-05-01T11:49:00.211Z,18.60
2023-05-01T11:54:09.780Z,18.60
2023-05-01T11:56:37.696Z,18.60
2023-05-01T11:59:12.412Z,18.50
2023-05-01T12:01:41.261Z,18.50
2023-05-01T12:04:09.015Z,18.40
2023-05-01T12:06:46.043Z,18.40
2023-05-01T12:09:17.594Z,18.30
2023-05-01T12:11:45.153Z,18.30
2023-05-01T12:14:12.691Z,18.30
2023-05-01T12:16:40.810Z,18.30
2023-05-01T12:19:08.402Z,18.30
2023-05-01T12:21:37.125Z,18.30
2023-05-01T12:24:10.693Z,18.40
2023-05-01T12:26:38.196Z,18.60
2023-05-01T12:29:07.035Z,18.70
2023-05-01T12:31:34.111Z,18.70
2023-05-01T12:34:05.564Z,18.80
2023-05-01T12:36:33.551Z,18.90
2023-05-01T12:39:11.456Z,19.00
2023-05-01T12:41:38.582Z,19.30
2023-05-01T12:44:25.328Z,19.50
2023-05-01T12:47:03.477Z,19.70
2023-05-01T12:49:32.429Z,19.80
2023-05-01T12:52:00.245Z,19.90
2023-05-01T12:54:28.889Z,20.20
2023-05-01T12:57:08.790Z,20.40
2023-05-01T12:59:39.172Z,20.40
2023-05-01T13:02:12.970Z,20.60
2023-05-01T13:04:40.500Z,20.80
2023-05-01T13:07:15.250Z,21.10
2023-05-01T13:09:52.533Z,21.20
2023-05-01T13:12:19.720Z,21.20
2023-05-01T13:14:46.682Z,21.30
2023-05-01T13:17:22.013Z,21.30
2023-05-01T13:19:56.284Z,21.30
2023-05-01T13:22:29.622Z,21.40
2023-05-01T13:24:57.260Z,21.40
2023-05-01T13:27:24.451Z,21.40
2023-05-01T13:29:53.702Z,21.40
2023-05-01T13:32:20.646Z,21.40
2023-05-01T13:34:47.705Z,21.30
2023-05-01T13:37:16.277Z,21.20
2023-05-01T13:39:44.147Z,21.10
2023-05-01T13:42:20.915Z,20.90
2023-05-01T13:44:51.286Z,20.70
2023-05-01T13:47:18.826Z,20.60
2023-05-01T13:49:46.377Z,20.50
2023-05-01T13:52:18.075Z,20.40
2023-05-01T13:54:46.640Z,20.40
2023-05-01T13:57:13.919Z,20.50
2023-05-01T13:59:42.140Z,20.60
2023-05-01T14:02:20.904Z,20.60
2023-05-01T14:04:48.473Z,20.70
2023-05-01T14:07:25.127Z,20.70
2023-05-01T14:09:52.545Z,20.70
2023-05-01T14:12:20.323Z,21.00
2023-05-01T14:14:48.139Z,21.20
2023-05-01T14:17:15.581Z,21.40
2023-05-01T14:19:42.563Z,21.50
2023-05-01T14:22:09.985Z,21.70
2023-05-01T14:24:37.790Z,21.70
2023-05-01T14:27:04.870Z,21.90
2023-05-01T14:29:31.920Z,22.00
2023-05-01T14:32:04.308Z,22.20
2023-05-01T14:34:31.912Z,22.20
2023-05-01T14:36:58.955Z,22.40
2023-05-01T14:39:26.205Z,22.40
2023-05-01T14:41:54.691Z,22.40
2023-05-01T14:44:23.678Z,22.30
2023-05-01T14:46:52.039Z,22.20
2023-05-01T14:49:22.805Z,22.10
2023-05-01T14:51:49.848Z,22.10
2023-05-01T14:54:17.040Z,22.10
2023-05-01T14:56:44.390Z,22.00
2023-05-01T14:59:11.531Z,21.90
2023-05-01T15:01:38.955Z,21.80
2023-05-01T15:04:07.813Z,21.90
2023-05-01T15:06:35.111Z,22.00
2023-05-01T15:09:03.078Z,22.10
2023-05-01T15:11:30.742Z,22.10
2023-05-01T15:13:57.909Z,22.10
2023-05-01T15:16:24.916Z,22.10
2023-05-01T15:18:51.985Z,22.30
2023-05-01T15:21:18.944Z,22.20
2023-05-01T15:23:46.476Z,22.20
2023-05-01T15:26:14.134Z,22.20
2023-05-01T15:28:41.157Z,22.20
2023-05-01T15:31:08.381Z,22.10
2023-05-01T15:33:35.535Z,22.10
2023-05-01T15:36:02.571Z,22.20
2023-05-01T15:38:30.459Z,22.30
2023-05-01T15:40:57.487Z,22.30
2023-05-01T15:43:24.551Z,22.20
2023-05-01T15:45:51.892Z,22.00
2023-05-01T15:48:19.091Z,22.00
2023-05-01T15:50:48.666Z,22.10
2023-05-01T15:53:17.338Z,22.20
2023-05-01T15:55:44.402Z,22.40
2023-05-01T15:58:11.420Z,22.60
2023-05-01T16:00:41.698Z,22.80
2023-05-01T16:03:09.011Z,22.90
2023-05-01T16:05:39.412Z,23.20
2023-05-01T16:08:06.856Z,23.30
2023-05-01T16:10:37.500Z,23.30
2023-05-01T16:13:06.689Z,23.40
2023-05-01T16:15:33.873Z,23.50
2023-05-01T16:18:04.256Z,23.50
2023-05-01T16:20:35.241Z,23.60
2023-05-01T16:23:05.987Z,23.50
2023-05-01T16:25:32.997Z,23.50
2023-05-01T16:28:00.039Z,23.40
2023-05-01T16:30:28.445Z,23.30
2023-05-01T16:32:55.709Z,23.20
2023-05-01T16:35:26.501Z,23.20
2023-05-01T16:37:54.085Z,23.00
2023-05-01T16:40:21.958Z,23.00
2023-05-01T16:42:50.098Z,22.90
2023-05-01T16:45:17.246Z,22.80
2023-05-01T16:47:46.555Z,22.70
2023-05-01T16:50:14.247Z,22.50
2023-05-01T16:52:41.730Z,22.40
2023-05-01T16:55:13.246Z,22.10
2023-05-01T16:57:43.046Z,22.00
2023-05-01T17:00:11.960Z,21.90
2023-05-01T17:02:39.222Z,21.80
2023-05-01T17:05:06.631Z,21.80
2023-05-01T17:07:33.670Z,21.70
2023-05-01T17:10:00.991Z,21.70
2023-05-01T17:12:29.571Z,21.80
2023-05-01T17:14:57.137Z,21.90
2023-05-01T17:17:24.130Z,22.00
2023-05-01T17:19:51.998Z,22.00
2023-05-01T17:22:18.975Z,22.00
2023-05-01T17:24:45.960Z,21.90
2023-05-01T17:27:13.990Z,21.80
2023-05-01T17:29:41.817Z,21.90
2023-05-01T17:32:09.052Z,21.90
2023-05-01T17:34:36.059Z,21.80
2023-05-01T17:37:03.530Z,21.80
2023-05-01T17:39:30.497Z,21.70
2023-05-01T17:41:57.570Z,21.70
2023-05-01T17:44:24.575Z,21.80
2023-05-01T17:46:51.532Z,21.80
2023-05-01T17:49:18.905Z,21.80
2023-05-01T17:51:45.947Z,21.80
2023-05-01T17:54:12.997Z,21.80
2023-05-01T17:56:40.014Z,21.80
2023-05-01T17:59:11.626Z,21.70
2023-05-01T18:01:38.657Z,21.60
2023-05-01T18:04:05.941Z,21.40
2023-05-01T18:06:33.547Z,21.30
2023-05-01T18:09:01.821Z,21.20
2023-05-01T18:11:28.767Z,21.10
2023-05-01T18:13:55.887Z,21.00
2023-05-01T18:16:23.685Z,20.70
2023-05-01T18:18:50.819Z,20.60
2023-05-01T18:21:18.086Z,20.40
2023-05-01T18:23:46.482Z,20.30
2023-05-01T18:26:14.832Z,20.20
2023-05-01T18:28:41.851Z,20.00
2023-05-01T18:31:11.806Z,19.80
2023-05-01T18:33:39.360Z,19.50
2023-05-01T18:36:06.726Z,19.30
2023-05-01T18:38:33.737Z,19.20
2023-05-01T18:41:00.805Z,19.00
2023-05-01T18:43:28.031Z,18.90
2023-05-01T18:45:55.033Z,18.80
2023-05-01T18:48:22.048Z,18.70
2023-05-01T18:50:57.505Z,18.60
2023-05-01T18:53:34.544Z,18.50
2023-05-01T18:56:01.835Z,18.30
2023-05-01T18:58:28.748Z,18.20
2023-05-01T19:00:55.924Z,18.10
2023-05-01T19:03:22.984Z,18.00
2023-05-01T19:05:50.019Z,17.90
2023-05-01T19:08:16.961Z,17.90
2023-05-01T19:10:44.096Z,17.80
2023-05-01T19:13:12.361Z,17.70
2023-05-01T19:15:39.400Z,17.60
2023-05-01T19:18:06.513Z,17.50
2023-05-01T19:20:33.587Z,17.40
2023-05-01T19:23:00.561Z,17.40
2023-05-01T19:25:27.832Z,17.30
2023-05-01T19:27:54.936Z,17.30
2023-05-01T19:30:22.178Z,17.20
2023-05-01T19:32:49.246Z,17.10
2023-05-01T19:35:16.487Z,17.00
2023-05-01T19:37:43.381Z,16.90
2023-05-01T19:40:10.580Z,16.80
2023-05-01T19:42:37.721Z,16.70
2023-05-01T19:45:04.865Z,16.60
2023-05-01T19:47:31.908Z,16.60
2023-05-01T19:49:59.035Z,16.50
2023-05-01T19:52:26.294Z,16.50
2023-05-01T19:54:53.230Z,16.40
2023-05-01T19:57:20.132Z,16.40
2023-05-01T19:59:47.209Z,16.30
2023-05-01T20:02:14.332Z,16.30
2023-05-01T20:04:43.062Z,16.30
2023-05-01T20:07:10.336Z,16.10
2023-05-01T20:09:37.318Z,16.00
2023-05-01T20:12:04.426Z,16.00
2023-05-01T20:14:33.938Z,15.90
2023-05-01T20:17:01.385Z,15.90
2023-05-01T20:19:29.149Z,15.80
2023-05-01T20:21:56.319Z,15.70
2023-05-01T20:24:23.296Z,15.70
2023-05-01T20:26:50.834Z,15.60
2023-05-01T20:29:18.177Z,15.60
2023-05-01T20:31:45.367Z,15.50
2023-05-01T20:34:12.368Z,15.40
2023-05-01T20:36:39.732Z,15.30
2023-05-01T20:39:06.751Z,15.30
2023-05-01T20:41:33.902Z,15.30
2023-05-01T20:44:01.306Z,15.20
2023-05-01T20:46:28.679Z,15.10
2023-05-01T20:48:56.229Z,15.00
2023-05-01T20:51:23.386Z,14.90
2023-05-01T20:53:50.407Z,14.90
2023-05-01T20:56:17.342Z,14.80
2023-05-01T20:58:44.373Z,14.80
2023-05-01T21:01:11.566Z,14.70
2023-05-01T21:03:38.824Z,14.60
2023-05-01T21:06:06.088Z,14.60
2023-05-01T21:08:33.516Z,14.60
2023-05-01T21:11:01.142Z,14.60
2023-05-01T21:13:28.376Z,14.60
2023-05-01T21:15:55.364Z,14.50
2023-05-01T21:18:22.488Z,14.50
2023-05-01T21:20:49.634Z,14.40
2023-05-01T21:23:17.194Z,14.30
2023-05-01T21:25:44.264Z,14.30
2023-05-01T21:28:12.020Z,14.20
2023-05-01T21:30:38.982Z,14.10
2023-05-01T21:33:08.641Z,14.10
2023-05-01T21:35:35.713Z,14.10
2023-05-01T21:38:04.512Z,14.10
2023-05-01T21:40:36.494Z,14.20
2023-05-01T21:43:03.446Z,14.20
2023-05-01T21:45:32.711Z,14.20
2023-05-01T21:47:59.708Z,14.20
2023-05-01T21:50:29.308Z,14.20
2023-05-01T21:52:56.360Z,14.20
2023-05-01T21:55:25.347Z,14.20
2023-05-01T21:57:53.498Z,14.10
2023-05-01T22:00:21.087Z,14.10
2023-05-01T22:02:48.831Z,14.10
2023-05-01T22:05:17.129Z,14.20
2023-05-01T22:07:45.364Z,14.20
2023-05-01T22:10:16.405Z,14.10
2023-05-01T22:12:43.780Z,14.10
2023-05-01T22:15:11.550Z,14.10
2023-05-01T22:17:39.323Z,14.10
2023-05-01T22:20:07.408Z,14.10
2023-05-01T22:22:34.590Z,14.10
2023-05-01T22:25:01.675Z,14.10
2023-05-01T22:27:28.796Z,14.10
2023-05-01T22:29:55.787Z,14.10
2023-05-01T22:32:22.898Z,14.10
2023-05-01T22:34:49.945Z,14.10
2023-05-01T22:37:17.827Z,14.20
2023-05-01T22:39:44.777Z,14.10
2023-05-01T22:42:11.721Z,14.10
2023-05-01T22:44:38.789Z,14.10
2023-05-01T22:47:05.728Z,14.00
2023-05-01T22:49:33.007Z,14.00
2023-05-01T22:52:00.192Z,14.00
2023-05-01T22:54:27.165Z,13.90
2023-05-01T22:56:54.375Z,13.90
2023-05-01T22:59:21.909Z,13.90
2023-05-01T23:01:49.056Z,13.80
2023-05-01T23:04:16.264Z,13.70
2023-05-01T23:06:44.629Z,13.60
2023-05-01T23:09:12.269Z,13.60
2023-05-01T23:11:40.577Z,13.50
2023-05-01T23:14:07.731Z,13.50
2023-05-01T23:16:41.870Z,13.50
2023-05-01T23:19:22.329Z,13.50
2023-05-01T23:21:49.798Z,13.40
2023-05-01T23:24:20.443Z,13.30
2023-05-01T23:26:47.626Z,13.30
2023-05-01T23:29:14.726Z,13.20
2023-05-01T23:31:46.964Z,13.20
2023-05-01T23:34:15.745Z,13.20
2023-05-01T23:36:44.217Z,13.10
2023-05-01T23:39:11.378Z,13.00
2023-05-01T23:41:38.587Z,13.00
2023-05-01T23:44:05.679Z,12.90
2023-05-01T23:46:32.678Z,12.90
2023-05-01T23:48:59.968Z,12.80
2023-05-01T23:51:28.023Z,12.80
2023-05-01T23:53:57.328Z,12.70
2023-05-01T23:56:24.303Z,12.70
2023-05-01T23:58:51.313Z,12.70
